createdAt,value
2022-10-14T00:02:09.940Z,23.83
2022-10-14T00:04:39.443Z,23.88
2022-10-14T00:07:11.566Z,28.58
2022-10-14T00:09:42.267Z,23.98
2022-10-14T00:12:11.763Z,25.05
2022-10-14T00:14:42.429Z,27.00
2022-10-14T00:17:12.307Z,25.38
2022-10-14T00:19:41.765Z,22.10
2022-10-14T00:22:13.980Z,21.70
2022-10-14T00:24:43.467Z,22.45
2022-10-14T00:27:12.931Z,22.15
2022-10-14T00:29:42.380Z,22.73
2022-10-14T00:32:12.214Z,19.38
2022-10-14T00:34:41.856Z,20.67
2022-10-14T00:37:13.887Z,24.40
2022-10-14T00:39:43.388Z,20.98
2022-10-14T00:42:14.740Z,21.48
2022-10-14T00:45:04.656Z,20.95
2022-10-14T00:47:34.167Z,22.50
2022-10-14T00:50:03.767Z,25.48
2022-10-14T00:52:35.859Z,24.23
2022-10-14T00:55:07.166Z,21.33
2022-10-14T00:57:36.633Z,25.98
2022-10-14T01:00:09.903Z,24.27
2022-10-14T01:02:39.455Z,23.60
2022-10-14T01:05:09.700Z,23.05
2022-10-14T01:07:48.771Z,24.57
2022-10-14T01:10:22.701Z,24.05
2022-10-14T01:12:58.485Z,24.27
2022-10-14T01:15:31.659Z,22.85
2022-10-14T01:18:07.625Z,21.98
2022-10-14T01:20:48.271Z,21.15
2022-10-14T01:23:39.476Z,21.60
2022-10-14T01:26:16.991Z,22.30
2022-10-14T01:28:47.957Z,22.38
2022-10-14T01:31:20.885Z,20.35
2022-10-14T01:33:50.748Z,21.20
2022-10-14T01:36:20.749Z,19.70
2022-10-14T01:38:51.875Z,20.92
2022-10-14T01:43:52.440Z,21.00
2022-10-14T01:46:24.875Z,21.27
2022-10-14T01:48:55.493Z,19.85
2022-10-14T01:51:26.520Z,20.73
2022-10-14T01:56:26.332Z,23.05
2022-10-14T01:58:55.855Z,22.00
2022-10-14T02:01:27.959Z,21.10
2022-10-14T02:03:57.467Z,21.50
2022-10-14T02:06:29.129Z,18.65
2022-10-14T02:09:11.160Z,20.83
2022-10-14T02:11:43.292Z,20.40
2022-10-14T02:14:17.117Z,19.52
2022-10-14T02:16:51.908Z,20.35
2022-10-14T02:19:27.259Z,21.23
2022-10-14T02:21:58.689Z,19.70
2022-10-14T02:24:30.061Z,20.13
2022-10-14T02:27:00.907Z,18.58
2022-10-14T02:29:30.348Z,17.83
2022-10-14T02:32:02.475Z,19.85
2022-10-14T02:34:31.936Z,17.15
2022-10-14T02:37:01.419Z,14.60
2022-10-14T02:39:32.909Z,15.52
2022-10-14T02:42:02.399Z,15.35
2022-10-14T02:44:31.861Z,14.88
2022-10-14T02:47:03.933Z,14.52
2022-10-14T02:49:33.393Z,15.65
2022-10-14T02:52:02.884Z,16.27
2022-10-14T02:54:32.443Z,14.60
2022-10-14T02:57:01.886Z,16.20
2022-10-14T02:59:31.368Z,15.85
2022-10-14T03:02:03.455Z,15.57
2022-10-14T03:04:32.999Z,15.32
2022-10-14T03:07:02.500Z,16.88
2022-10-14T03:09:32.456Z,13.40
2022-10-14T03:12:01.951Z,14.38
2022-10-14T03:14:31.416Z,16.67
2022-10-14T03:17:03.481Z,15.90
2022-10-14T03:19:32.933Z,14.82
2022-10-14T03:22:02.413Z,14.05
2022-10-14T03:24:31.891Z,14.77
2022-10-14T03:27:01.365Z,14.77
2022-10-14T03:29:30.807Z,14.48
2022-10-14T03:32:02.886Z,14.98
2022-10-14T03:34:32.329Z,15.85
2022-10-14T03:37:01.794Z,14.20
2022-10-14T03:39:31.593Z,13.65
2022-10-14T03:42:01.061Z,14.43
2022-10-14T03:44:30.551Z,13.73
2022-10-14T03:47:00.029Z,14.20
2022-10-14T03:49:32.089Z,13.60
2022-10-14T03:52:01.542Z,14.25
2022-10-14T03:54:31.056Z,14.15
2022-10-14T03:57:00.547Z,14.23
2022-10-14T03:59:30.056Z,15.65
2022-10-14T04:01:59.609Z,13.10
2022-10-14T04:04:31.724Z,14.35
2022-10-14T04:07:01.262Z,14.15
2022-10-14T04:09:30.707Z,13.73
2022-10-14T04:12:00.273Z,15.40
2022-10-14T04:14:29.830Z,14.85
2022-10-14T04:16:59.296Z,15.32
2022-10-14T04:19:28.929Z,13.77
2022-10-14T04:22:01.131Z,12.35
2022-10-14T04:24:30.604Z,12.75
2022-10-14T04:27:00.117Z,14.63
2022-10-14T04:29:29.753Z,13.68
2022-10-14T04:31:59.262Z,14.65
2022-10-14T04:34:28.716Z,14.45
2022-10-14T04:37:00.789Z,14.07
2022-10-14T04:39:30.272Z,13.40
2022-10-14T04:41:59.762Z,13.93
2022-10-14T04:44:29.247Z,13.75
2022-10-14T04:46:58.716Z,13.38
2022-10-14T04:49:29.227Z,13.23
2022-10-14T04:52:01.290Z,14.50
2022-10-14T04:54:30.878Z,13.38
2022-10-14T04:57:00.352Z,14.40
2022-10-14T04:59:29.857Z,13.90
2022-10-14T05:01:59.380Z,14.93
2022-10-14T05:04:28.977Z,15.32
2022-10-14T05:07:01.294Z,15.02
2022-10-14T05:09:30.911Z,14.15
2022-10-14T05:12:00.566Z,18.88
2022-10-14T05:14:30.047Z,15.18
2022-10-14T05:16:59.531Z,15.57
2022-10-14T05:19:29.154Z,16.33
2022-10-14T05:22:01.262Z,14.18
2022-10-14T05:24:30.739Z,16.52
2022-10-14T05:27:00.226Z,14.98
2022-10-14T05:29:29.688Z,14.57
2022-10-14T05:31:59.319Z,14.80
2022-10-14T05:34:28.835Z,15.60
2022-10-14T05:37:00.864Z,16.42
2022-10-14T05:39:30.692Z,14.77
2022-10-14T05:42:00.157Z,14.38
2022-10-14T05:44:29.729Z,15.00
2022-10-14T05:46:59.192Z,16.17
2022-10-14T05:49:28.704Z,15.73
2022-10-14T05:52:00.759Z,17.38
2022-10-14T05:54:30.232Z,15.75
2022-10-14T05:56:59.748Z,15.32
2022-10-14T05:59:29.767Z,14.93
2022-10-14T06:01:59.326Z,17.63
2022-10-14T06:04:29.042Z,15.68
2022-10-14T06:07:01.601Z,14.48
2022-10-14T06:09:32.935Z,14.77
2022-10-14T06:12:02.480Z,15.45
2022-10-14T06:14:31.943Z,16.02
2022-10-14T06:17:01.399Z,14.60
2022-10-14T06:19:30.897Z,14.82
2022-10-14T06:22:03.696Z,17.70
2022-10-14T06:24:33.178Z,18.17
2022-10-14T06:27:02.641Z,18.15
2022-10-14T06:29:37.961Z,15.32
2022-10-14T06:32:07.773Z,17.50
2022-10-14T06:34:37.422Z,18.55
2022-10-14T06:37:09.441Z,16.40
2022-10-14T06:39:38.969Z,18.30
2022-10-14T06:42:12.903Z,18.02
2022-10-14T06:44:42.767Z,18.20
2022-10-14T06:47:12.224Z,17.23
2022-10-14T06:49:41.736Z,18.35
2022-10-14T06:52:13.786Z,18.17
2022-10-14T06:54:48.049Z,20.02
2022-10-14T06:57:17.892Z,19.35
2022-10-14T06:59:47.377Z,18.67
2022-10-14T07:02:16.819Z,20.75
2022-10-14T07:04:46.284Z,20.70
2022-10-14T07:07:18.345Z,17.70
2022-10-14T07:09:47.817Z,20.30
2022-10-14T07:12:17.291Z,26.75
2022-10-14T07:14:46.782Z,21.58
2022-10-14T07:17:16.251Z,18.90
2022-10-14T07:19:45.727Z,21.10
2022-10-14T07:22:18.373Z,21.30
2022-10-14T07:24:47.899Z,22.50
2022-10-14T07:27:18.403Z,22.67
2022-10-14T07:29:48.215Z,22.13
2022-10-14T07:32:17.694Z,22.13
2022-10-14T07:34:47.136Z,22.33
2022-10-14T07:37:19.467Z,22.65
2022-10-14T07:39:49.403Z,22.25
2022-10-14T07:45:09.557Z,24.55
2022-10-14T07:47:39.020Z,25.83
2022-10-14T07:50:09.647Z,21.05
2022-10-14T07:52:41.753Z,22.17
2022-10-14T07:55:11.648Z,23.15
2022-10-14T07:57:41.184Z,19.67
2022-10-14T08:00:11.653Z,24.55
2022-10-14T08:02:41.135Z,23.70
2022-10-14T08:05:36.486Z,23.00
2022-10-14T08:08:02.887Z,25.92
2022-10-14T08:10:32.362Z,22.35
2022-10-14T08:13:01.818Z,23.48
2022-10-14T08:15:31.800Z,22.90
2022-10-14T08:18:01.312Z,23.88
2022-10-14T08:20:30.988Z,24.25
2022-10-14T08:23:03.154Z,23.65
2022-10-14T08:25:32.629Z,21.35
2022-10-14T08:28:02.291Z,22.00
2022-10-14T08:30:31.737Z,22.10
2022-10-14T08:33:01.240Z,24.20
2022-10-14T08:35:30.955Z,22.48
2022-10-14T08:38:03.740Z,20.15
2022-10-14T08:40:36.313Z,22.55
2022-10-14T08:43:07.165Z,21.65
2022-10-14T08:45:38.036Z,19.48
2022-10-14T08:48:11.361Z,21.20
2022-10-14T08:50:42.768Z,22.88
2022-10-14T08:53:16.528Z,21.75
2022-10-14T08:55:47.212Z,20.83
2022-10-14T08:58:17.865Z,19.90
2022-10-14T09:00:48.398Z,21.85
2022-10-14T09:03:19.482Z,22.95
2022-10-14T09:08:21.247Z,22.45
2022-10-14T09:10:50.752Z,25.27
2022-10-14T09:13:21.091Z,20.27
2022-10-14T09:15:52.233Z,19.35
2022-10-14T09:20:53.679Z,21.33
2022-10-14T09:23:26.403Z,21.33
2022-10-14T09:26:00.309Z,22.30
2022-10-14T09:28:36.513Z,19.63
2022-10-14T09:31:06.241Z,19.60
2022-10-14T09:33:42.202Z,21.17
2022-10-14T09:36:15.561Z,34.78
2022-10-14T09:38:47.939Z,21.05
2022-10-14T09:41:18.009Z,21.35
2022-10-14T09:44:21.230Z,20.38
2022-10-14T09:46:52.428Z,22.80
2022-10-14T09:49:23.510Z,20.33
2022-10-14T09:54:29.024Z,21.70
2022-10-14T09:57:03.204Z,21.63
2022-10-14T09:59:32.703Z,23.40
2022-10-14T10:02:04.058Z,25.35
2022-10-14T10:04:38.141Z,22.85
2022-10-14T10:07:08.844Z,22.40
2022-10-14T10:09:40.880Z,24.25
2022-10-14T10:12:27.379Z,19.08
2022-10-14T10:14:59.079Z,21.38
2022-10-14T10:17:28.938Z,21.20
2022-10-14T10:20:10.902Z,23.23
2022-10-14T10:22:41.830Z,21.92
2022-10-14T10:25:27.248Z,20.35
2022-10-14T10:27:57.635Z,22.42
2022-10-14T10:30:28.109Z,21.33
2022-10-14T10:33:05.822Z,21.20
2022-10-14T10:35:37.012Z,21.88
2022-10-14T10:38:10.054Z,18.65
2022-10-14T10:40:49.401Z,21.85
2022-10-14T10:43:52.006Z,21.50
2022-10-14T10:46:28.259Z,21.15
2022-10-14T10:49:01.635Z,20.35
2022-10-14T10:51:34.521Z,20.13
2022-10-14T10:54:10.358Z,20.88
2022-10-14T10:56:45.065Z,20.27
2022-10-14T10:59:44.155Z,19.08
2022-10-14T11:02:48.010Z,20.40
2022-10-14T11:05:19.732Z,17.50
2022-10-14T11:08:08.064Z,19.67
2022-10-14T11:10:54.723Z,18.00
2022-10-14T11:13:32.368Z,19.05
2022-10-14T11:16:04.023Z,18.70
2022-10-14T11:18:37.087Z,19.63
2022-10-14T11:21:11.925Z,21.42
2022-10-14T11:23:46.683Z,21.05
2022-10-14T11:26:27.241Z,21.30
2022-10-14T11:29:04.153Z,19.52
2022-10-14T11:31:37.436Z,22.17
2022-10-14T11:34:17.053Z,20.95
2022-10-14T11:36:50.120Z,20.65
2022-10-14T11:39:28.696Z,20.17
2022-10-14T11:42:06.037Z,18.77
2022-10-14T11:44:39.167Z,17.08
2022-10-14T11:47:12.304Z,22.13
2022-10-14T11:49:46.137Z,18.67
2022-10-14T11:52:19.081Z,19.13
2022-10-14T11:54:49.763Z,18.38
2022-10-14T11:57:24.039Z,19.20
2022-10-14T12:00:11.503Z,18.77
2022-10-14T12:02:45.026Z,19.45
2022-10-14T12:05:19.335Z,20.95
2022-10-14T12:07:53.449Z,21.52
2022-10-14T12:10:25.782Z,20.00
2022-10-14T12:12:55.252Z,22.25
2022-10-14T12:15:27.920Z,22.85
2022-10-14T12:17:58.015Z,20.77
2022-10-14T12:20:33.228Z,23.48
2022-10-14T12:23:02.696Z,27.50
2022-10-14T12:25:37.263Z,25.60
2022-10-14T12:28:08.870Z,25.23
2022-10-14T12:30:42.050Z,26.15
2022-10-14T12:33:12.405Z,22.80
2022-10-14T12:35:59.361Z,21.05
2022-10-14T12:38:29.347Z,25.23
2022-10-14T12:40:58.905Z,28.67
2022-10-14T12:43:29.767Z,26.38
2022-10-14T12:46:13.584Z,27.25
2022-10-14T12:48:50.996Z,30.58
2022-10-14T12:51:21.728Z,33.78
2022-10-14T12:54:05.768Z,26.23
2022-10-14T12:56:37.149Z,26.05
2022-10-14T12:59:07.751Z,67.03
2022-10-14T13:01:39.901Z,35.33
2022-10-14T13:04:10.811Z,39.13
2022-10-14T13:06:42.343Z,34.60
2022-10-14T13:09:36.419Z,60.72
2022-10-14T13:12:45.124Z,43.15
2022-10-14T13:15:34.964Z,24.13
2022-10-14T13:18:38.045Z,22.83
2022-10-14T13:21:08.083Z,22.10
2022-10-14T13:23:41.048Z,23.17
2022-10-14T13:26:21.969Z,23.48
2022-10-14T13:28:57.661Z,21.20
2022-10-14T13:31:29.040Z,19.50
2022-10-14T13:34:07.011Z,21.20
2022-10-14T13:36:38.318Z,24.73
2022-10-14T13:39:07.953Z,21.80
2022-10-14T13:41:38.026Z,25.73
2022-10-14T13:44:07.670Z,23.25
2022-10-14T13:46:38.405Z,21.83
2022-10-14T13:51:47.460Z,22.02
2022-10-14T13:54:21.967Z,20.55
2022-10-14T13:57:38.275Z,20.60
2022-10-14T14:02:48.033Z,24.88
2022-10-14T14:05:22.470Z,17.65
2022-10-14T14:11:10.985Z,16.30
2022-10-14T14:13:32.390Z,18.13
2022-10-14T14:16:01.848Z,17.95
2022-10-14T14:18:49.476Z,17.60
2022-10-14T14:21:29.487Z,16.88
2022-10-14T14:24:00.749Z,17.83
2022-10-14T14:26:35.571Z,16.63
2022-10-14T14:29:06.758Z,17.08
2022-10-14T14:34:26.118Z,14.20
2022-10-14T14:37:10.762Z,12.70
2022-10-14T14:39:49.693Z,17.85
2022-10-14T14:42:19.118Z,16.60
2022-10-14T14:44:49.835Z,14.77
2022-10-14T14:47:19.470Z,12.43
2022-10-14T14:49:51.593Z,16.45
2022-10-14T14:52:29.438Z,13.80
2022-10-14T14:54:58.912Z,12.13
2022-10-14T14:57:28.368Z,10.88
2022-10-14T15:00:02.301Z,13.38
2022-10-14T15:02:31.882Z,10.65
2022-10-14T15:05:02.393Z,20.05
2022-10-14T15:07:34.636Z,15.98
2022-10-14T15:10:04.802Z,21.20
2022-10-14T15:12:39.272Z,27.80
2022-10-14T15:15:26.751Z,12.18
2022-10-14T15:18:08.770Z,18.00
2022-10-14T15:20:38.370Z,12.32
2022-10-14T15:23:37.695Z,9.85
2022-10-14T15:26:23.885Z,10.73
2022-10-14T15:29:08.954Z,10.55
2022-10-14T15:31:38.760Z,10.57
2022-10-14T15:34:08.257Z,10.13
2022-10-14T15:36:37.750Z,10.63
2022-10-14T15:39:07.222Z,11.63
2022-10-14T15:41:39.280Z,11.07
2022-10-14T15:44:08.724Z,10.05
2022-10-14T15:46:50.821Z,10.90
2022-10-14T15:49:25.808Z,9.30
2022-10-14T15:51:55.291Z,11.70
2022-10-14T15:54:27.059Z,10.93
2022-10-14T15:56:59.671Z,9.73
2022-10-14T15:59:29.143Z,10.27
2022-10-14T16:01:58.971Z,9.65
2022-10-14T16:04:29.110Z,9.30
2022-10-14T16:06:58.999Z,14.48
2022-10-14T16:09:29.380Z,15.38
2022-10-14T16:12:01.393Z,21.10
2022-10-14T16:14:30.836Z,20.02
2022-10-14T16:17:05.775Z,17.73
2022-10-14T16:19:35.940Z,15.13
2022-10-14T16:22:05.401Z,13.57
2022-10-14T16:24:34.956Z,11.60
2022-10-14T16:27:07.016Z,11.88
2022-10-14T16:29:36.544Z,9.70
2022-10-14T16:32:06.020Z,9.85
2022-10-14T16:34:35.462Z,10.45
2022-10-14T16:37:07.093Z,9.68
2022-10-14T16:39:36.577Z,9.38
2022-10-14T16:42:09.233Z,14.15
2022-10-14T16:44:38.783Z,13.57
2022-10-14T16:47:20.947Z,11.35
2022-10-14T16:49:51.936Z,15.55
2022-10-14T16:52:21.969Z,10.63
2022-10-14T16:54:51.749Z,10.05
2022-10-14T16:57:24.895Z,9.25
2022-10-14T16:59:54.397Z,8.77
2022-10-14T17:02:31.811Z,10.80
2022-10-14T17:05:01.252Z,8.88
2022-10-14T17:07:30.716Z,9.63
2022-10-14T17:10:00.496Z,9.43
2022-10-14T17:12:32.817Z,10.85
2022-10-14T17:15:02.344Z,10.00
2022-10-14T17:17:31.873Z,10.13
2022-10-14T17:20:01.332Z,10.75
2022-10-14T17:22:30.814Z,14.15
2022-10-14T17:25:00.287Z,12.98
2022-10-14T17:27:32.317Z,13.38
2022-10-14T17:30:02.002Z,12.02
2022-10-14T17:32:31.692Z,14.68
2022-10-14T17:35:01.149Z,13.13
2022-10-14T17:37:32.993Z,12.93
2022-10-14T17:40:02.841Z,12.82
2022-10-14T17:42:34.907Z,12.23
2022-10-14T17:45:04.346Z,11.68
2022-10-14T17:47:34.227Z,12.75
2022-10-14T17:50:03.744Z,11.70
2022-10-14T17:52:33.199Z,11.65
2022-10-14T17:55:02.685Z,11.10
2022-10-14T17:57:34.724Z,11.07
2022-10-14T18:00:04.193Z,10.63
2022-10-14T18:02:33.709Z,11.20
2022-10-14T18:05:03.229Z,10.48
2022-10-14T18:07:34.738Z,11.00
2022-10-14T18:10:05.640Z,10.48
2022-10-14T18:12:37.705Z,9.07
2022-10-14T18:15:08.536Z,9.43
2022-10-14T18:17:39.412Z,9.52
2022-10-14T18:20:09.649Z,9.93
2022-10-14T18:22:39.143Z,10.30
2022-10-14T18:25:09.525Z,10.98
2022-10-14T18:27:41.570Z,10.85
2022-10-14T18:30:14.612Z,9.98
2022-10-14T18:32:44.076Z,10.50
2022-10-14T18:35:13.549Z,9.60
2022-10-14T18:37:43.175Z,9.02
2022-10-14T18:40:16.924Z,11.75
2022-10-14T18:42:48.991Z,10.05
2022-10-14T18:45:18.841Z,16.17
2022-10-14T18:47:49.233Z,11.80
2022-10-14T18:50:18.729Z,17.75
2022-10-14T18:52:48.266Z,13.35
2022-10-14T18:55:17.785Z,14.50
2022-10-14T18:57:49.845Z,12.82
2022-10-14T19:00:19.713Z,10.63
2022-10-14T19:02:49.267Z,11.68
2022-10-14T19:05:19.142Z,13.80
2022-10-14T19:07:48.663Z,12.70
2022-10-14T19:10:18.164Z,16.13
2022-10-14T19:12:50.774Z,10.75
2022-10-14T19:15:24.557Z,10.68
2022-10-14T19:17:56.569Z,18.08
2022-10-14T19:20:26.017Z,9.05
2022-10-14T19:22:56.881Z,13.07
2022-10-14T19:25:26.496Z,9.73
2022-10-14T19:27:58.580Z,9.88
2022-10-14T19:30:28.275Z,8.88
2022-10-14T19:32:57.775Z,9.77
2022-10-14T19:35:27.247Z,9.93
2022-10-14T19:37:56.725Z,8.77
2022-10-14T19:40:26.207Z,9.63
2022-10-14T19:42:58.288Z,9.05
2022-10-14T19:45:28.026Z,9.43
2022-10-14T19:47:57.485Z,10.40
2022-10-14T19:50:26.931Z,9.25
2022-10-14T19:52:56.394Z,10.70
2022-10-14T19:55:25.861Z,10.30
2022-10-14T19:57:57.960Z,9.75
2022-10-14T20:00:27.425Z,10.10
2022-10-14T20:02:56.903Z,8.05
2022-10-14T20:05:26.388Z,7.63
2022-10-14T20:07:57.222Z,8.48
2022-10-14T20:10:26.677Z,9.50
2022-10-14T20:12:58.700Z,9.48
2022-10-14T20:15:28.165Z,8.63
2022-10-14T20:17:57.642Z,8.80
2022-10-14T20:20:27.237Z,8.38
2022-10-14T20:22:56.675Z,8.75
2022-10-14T20:25:27.243Z,8.10
2022-10-14T20:27:59.425Z,8.63
2022-10-14T20:30:28.888Z,9.88
2022-10-14T20:32:58.358Z,10.18
2022-10-14T20:37:58.256Z,9.40
2022-10-14T20:40:27.883Z,11.05
2022-10-14T20:42:59.925Z,10.98
2022-10-14T20:45:29.501Z,10.20
2022-10-14T20:47:58.959Z,10.82
2022-10-14T20:50:28.399Z,9.23
2022-10-14T20:52:59.506Z,9.80
2022-10-14T20:58:00.951Z,8.45
2022-10-14T21:00:30.425Z,9.73
2022-10-14T21:02:59.881Z,9.25
2022-10-14T21:05:29.363Z,9.57
2022-10-14T21:07:58.818Z,9.40
2022-10-14T21:10:28.382Z,9.85
2022-10-14T21:13:00.445Z,10.50
2022-10-14T21:15:29.904Z,7.90
2022-10-14T21:17:59.361Z,8.30
2022-10-14T21:20:28.872Z,8.85
2022-10-14T21:22:58.331Z,7.95
2022-10-14T21:25:27.903Z,9.40
2022-10-14T21:27:59.961Z,9.25
2022-10-14T21:30:29.508Z,9.40
2022-10-14T21:32:58.984Z,9.85
2022-10-14T21:35:28.535Z,8.73
2022-10-14T21:37:58.043Z,9.00
2022-10-14T21:40:27.714Z,8.73
2022-10-14T21:42:59.763Z,9.02
2022-10-14T21:45:29.223Z,10.00
2022-10-14T21:50:48.341Z,9.73
2022-10-14T21:53:17.803Z,10.57
2022-10-14T21:55:47.247Z,10.18
2022-10-14T21:58:19.270Z,10.85
2022-10-14T22:00:48.863Z,9.48
2022-10-14T22:03:19.401Z,8.85
2022-10-14T22:05:48.912Z,9.77
2022-10-14T22:08:22.978Z,9.95
2022-10-14T22:10:55.208Z,11.15
2022-10-14T22:13:27.424Z,10.80
2022-10-14T22:15:57.223Z,9.88
2022-10-14T22:18:26.781Z,10.13
2022-10-14T22:21:03.994Z,11.18
2022-10-14T22:23:33.486Z,10.82
2022-10-14T22:26:03.359Z,11.25
2022-10-14T22:28:35.445Z,11.15
2022-10-14T22:31:08.091Z,12.02
2022-10-14T22:33:37.978Z,10.55
2022-10-14T22:36:11.271Z,11.10
2022-10-14T22:38:41.444Z,10.98
2022-10-14T22:41:10.968Z,10.20
2022-10-14T22:43:43.109Z,10.40
2022-10-14T22:46:14.276Z,9.13
2022-10-14T22:48:43.725Z,10.30
2022-10-14T22:51:14.000Z,9.80
2022-10-14T22:53:43.691Z,11.68
2022-10-14T22:56:14.344Z,9.90
2022-10-14T22:58:46.798Z,11.10
2022-10-14T23:01:17.220Z,9.70
2022-10-14T23:03:46.762Z,9.13
2022-10-14T23:06:16.399Z,9.20
2022-10-14T23:08:45.826Z,9.50
2022-10-14T23:11:16.469Z,10.48
2022-10-14T23:13:48.548Z,9.70
2022-10-14T23:16:19.227Z,9.00
2022-10-14T23:18:48.850Z,8.05
2022-10-14T23:21:19.379Z,10.52
2022-10-14T23:23:49.706Z,7.57
2022-10-14T23:26:21.338Z,9.18
2022-10-14T23:28:53.990Z,8.50
2022-10-14T23:31:24.175Z,8.95
2022-10-14T23:33:53.769Z,9.13
2022-10-14T23:36:24.247Z,9.73
2022-10-14T23:38:54.082Z,10.32
2022-10-14T23:41:24.346Z,9.93
2022-10-14T23:43:56.894Z,10.27
2022-10-14T23:46:26.419Z,9.75
2022-10-14T23:49:06.752Z,10.30
2022-10-14T23:51:37.437Z,10.15
2022-10-14T23:54:07.068Z,9.43
2022-10-14T23:56:36.739Z,11.50
2022-10-14T23:59:08.767Z,11.73
